AirNav   TITAN Aviation Fuels
 
 1307 users online  

56MI Beaumont Dearborn Heliport
Dearborn, Michigan, USA

GOING TO DEARBORN?


FAA INFORMATION EFFECTIVE 19 MAY 2022

Location

FAA Identifier: 56MI
Lat/Long: 42-17-23.7200N 083-12-56.7200W
42-17.395333N 083-12.945333W
42.2899222,-83.2157556
(estimated)
Elevation: 597 ft. / 182 m (estimated)
Variation: 06W (1995)
Time zone: UTC -4 (UTC -5 during Standard Time)
Zip code: 48124

Heliport Operations

Heliport use: Private use, MEDICAL USE.
Activation date: 08/1998
Control tower: no
ARTCC: CLEVELAND CENTER
FSS: LANSING FLIGHT SERVICE STATION
Attendance: CONTINUOUS
Segmented circle: no
Lights: ACTVT FLOOD LGTS - CALL 313-593-7720.

Heliport Communications

CTAF: 122.9
WX ASOS at DTW (8 nm SW): PHONE 734-955-5015
WX ASOS at DET (12 nm NE): PHONE 313-371-9696
WX AWOS-3 at ONZ (12 nm S): 119.675 (734-692-9686)
WX ASOS at YIP (14 nm W): PHONE 734-961-6843
WX AWOS-3 at VLL (15 nm N): 119.475 (248-288-4649)

Nearby radio navigation aids

VOR radial/distance  VOR name  Freq  Var
DXOr061/8.1DETROIT VOR/DME113.4006W
CRLr040/18.1CARLETON VOR/DME115.7003W
SVMr116/18.2SALEM VORTAC114.3003W

 
NDB name  Hdg/Dist  Freq  Var  ID
GROSSE ILE353/11.741907WRYS .-. -.-- ...
TECUMSEH069/33.523906WTCU - -.-. ..-

Heliport Services

Runway Information

Helipad H1

Dimensions: 60 x 60 ft. / 18 x 18 m
Surface: concrete
CIRCULAR PAD.
Runway edge lights: FLD
Latitude: 42-17.395333N
Longitude: 083-12.945333W
Elevation: 597.0 ft.
Traffic pattern: leftleft

Heliport Ownership and Management from official FAA records

Ownership: Privately-owned
Owner: OAKWOOD HOSPITAL
18101 OAKWOOD BLVD
DEARBORN, MI 48124-2500
Phone 313-593-7720
Manager: SCOTT STOCKINGER
18101 OAKWOOD BLVD
DEARBORN, MI 48124-2500
Phone 313-982-5811

Additional Remarks

FOR CD CTC DETROIT APCH AT 734-955-1404.

Instrument Procedures

There are no published instrument procedures at 56MI.

Some nearby airports with instrument procedures:

KDTW - Detroit Metro Wayne County Airport (8 nm SW)
1D2 - Canton-Plymouth-Mettetal Airport (11 nm W)
KDET - Coleman A Young Municipal Airport (12 nm NE)
KONZ - Grosse Ile Municipal Airport (12 nm S)
KYIP - Willow Run Airport (14 nm W)
KVLL - Oakland/Troy Airport (15 nm N)
 
Loc | Ops | Rwys | IFR | FBO | Links
Com | Nav | Svcs | Stats | Notes
Area around 56MI (Beaumont Dearborn Heliport)
 
Road maps at: MapQuest Bing Google
 
Aerial photo
No photo
 
Sectional chart

 
Airport distance calculator
Flying to Beaumont Dearborn Heliport? Find the distance to fly.

From to 56MI

Sunrise and sunset
Times for 26-May-2022
 Local
(UTC-4)
 Zulu
(UTC)
Morning civil twilight05:3009:30
Sunrise06:0310:03
Sunset20:5700:57
Evening civil twilight21:3001:30

Current date and time
Zulu (UTC)  26-May-2022 21:18:46
Local (UTC-4)  26-May-2022 17:18:46
 
METAR
KDTW 
6nm SW 
262053Z 18004KT 2SM -RA BR FEW009 BKN020 OVC040 21/19 A2984 RMK AO2 TWR VIS 3 RAE1956B25 SLP101 P0000 60008 T02060194 58007
KDET 
11nm NE 
262053Z 22007KT 9SM -RA BKN022 OVC029 21/19 A2984 RMK AO2 SLP102 P0007 60013 T02110189 56009
CYQG 
11nm E 
262103Z AUTO 19006KT 5SM -RA BR FEW008 BKN024 OVC034 20/19 A2985 RMK PCPN 0.5MM PAST HR SLP108 DENSITY ALT 1500FT
KONZ 
12nm S 
262055Z AUTO 19004KT 2 1/2SM +RA SCT026 BKN035 OVC047 20/20 A2983 RMK AO2 60021 T01950195 P0003
KYIP 
15nm W 
262053Z 19008KT 9SM -RA SCT018 BKN035 OVC075 24/19 A2983 RMK AO2 RAE1958B13E24B42 SLP095 P0001 60016 T02390189 58011
KVLL 
15nm N 
262055Z AUTO 21007KT 10SM SCT025 BKN046 OVC090 21/18 A2985 RMK AO2 T02060180
TAF
KDTW 
6nm SW 
261731Z 2618/2724 19012G20KT 6SM -SHRA BKN025 OVC050 TEMPO 2621/2624 3SM TSRA BR OVC030CB FM270100 18006KT P6SM OVC025 FM270800 20004KT 5SM BR SCT015 BKN025 FM271400 20006KT 6SM BR OVC020
KDET 
11nm NE 
261732Z 2618/2718 19012G20KT 6SM -SHRA BKN025 OVC050 TEMPO 2621/2624 3SM TSRA BR OVC030CB FM270100 18006KT P6SM OVC025 FM270800 20004KT 5SM BR SCT015 BKN025 FM271400 22006KT 6SM BR OVC020
CYQG 
11nm E 
262027Z 2620/2718 22012G22KT P6SM BKN025 TEMPO 2620/2704 5SM -SHRA BR SCT008 BKN020 PROB30 2622/2704 VRB20G30KT 2SM TSRA BR OVC015CB FM270400 17010KT P6SM -SHRA OVC015 PROB30 2704/2709 VRB15G25KT 2SM TSRA BR BKN008 OVC015CB FM271500 22012G22KT P6SM BKN020 FM271700 22012G22KT P6SM BKN025 RMK FCST BASED ON AUTO OBS. NXT FCST BY 270000Z
KYIP 
15nm W 
261728Z 2618/2718 19012G20KT 6SM -SHRA SCT025 BKN035 TEMPO 2621/2624 3SM TSRA BR OVC030CB FM270100 18006KT P6SM OVC025 FM270800 20004KT 5SM BR SCT015 BKN025 FM271400 22006KT 6SM BR OVC020
NOTAMs
Click for the latest NOTAMs
NOTAMs are issued by the DoD/FAA and will open in a separate window not controlled by AirNav.

 

 
 

Would you like to see your business listed on this page?

 If your business provides an interesting product or service to pilots, flight crews, aircraft, or users of the Beaumont Dearborn Heliport, you should consider listing it here.  To start the listing process, click on the button below
 
Add a business
 

Other Pages about Beaumont Dearborn Heliport

Update a link
 
Copyright © AirNav, LLC. All rights reserved. Privacy Policy  Contact